Flight Track Log - Related Links

Times and Time Zones

All times are in EDT time to prevent confusion due to time zone crossing. See the UAL152 flight status page for this flight to view local times or setup timezone preferences in your user account.

Time Position Orientation Groundspeed Altitude Reporting Facility
EDT Latitude Longitude Course Direction KTS MPH feet Rate Location/Type
Thu 06:53:20 PM 40.6479 -74.1915 204° Southwest 155 178 1,300  Level FlightAware ADS-B
Thu 06:53:26 PM 40.6437 -74.1914 179° South 159 183 1,500 2,000 Climbing FlightAware ADS-B
Thu 06:53:29 PM 40.6410 -74.1914 180° South 162 186 1,600 1,500 Climbing FlightAware ADS-B
Thu 06:53:34 PM 40.6372 -74.1919 186° South 168 193 1,700 1,636 Climbing FlightAware ADS-B
Thu 06:53:40 PM 40.6324 -74.1940 198° South 180 207 1,900 1,636 Climbing FlightAware ADS-B
Thu 06:53:45 PM 40.6293 -74.1964 210° Southwest 187 215 2,000 1,333 Climbing FlightAware ADS-B
Thu 06:53:58 PM 40.6219 -74.2089 232° Southwest 210 242 2,300 2,000 Climbing FlightAware ADS-B
Thu 06:54:03 PM 40.6202 -74.2151 250° West 215 247 2,600 3,273 Climbing FlightAware ADS-B
Thu 06:54:09 PM 40.6195 -74.2226 263° West 218 251 2,900 2,500 Climbing FlightAware ADS-B
Thu 06:54:27 PM 40.6250 -74.2465 287° West 218 251 3,600 2,286 Climbing FlightAware ADS-B
Thu 06:54:30 PM 40.6274 -74.2504 309° West 256 295 3,700 2,167 Climbing FlightAware ADS-B
Thu 06:55:03 PM 40.6620 -74.2680 339° North 299 344 4,900 1,905 Climbing FlightAware ADS-B
Thu 06:55:33 PM 40.7050 -74.2500 18° North 308 354 5,700 1,371 Climbing FlightAware ADS-B
Thu 06:55:38 PM 40.7128 -74.2446 28° Northeast 305 351 5,700 333 Level FlightAware ADS-B
Thu 06:55:51 PM 40.7294 -74.2336 27° Northeast 304 350 5,800 353 Climbing FlightAware ADS-B
Thu 06:55:55 PM 40.7346 -74.2300 28° Northeast 302 348 5,800 600 Level FlightAware ADS-B
Thu 06:56:21 PM 40.7608 -74.1974 43° Northeast 300 345 6,100 889 Climbing FlightAware ADS-B
Thu 06:56:22 PM 40.7611 -74.1969 52° Northeast 302 348 6,200 3,600 Climbing FlightAware ADS-B
Thu 06:56:36 PM 40.7735 -74.1751 53° Northeast 301 346 7,000 3,176 Climbing FlightAware ADS-B
Thu 06:56:39 PM 40.7752 -74.1720 54° Northeast 301 346 7,100 2,824 Climbing FlightAware ADS-B
Thu 06:56:53 PM 40.7871 -74.1505 54° Northeast 306 352 7,800 3,000 Climbing FlightAware ADS-B
Thu 06:56:55 PM 40.7885 -74.1481 52° Northeast 306 352 7,900 2,824 Climbing FlightAware ADS-B
Thu 06:57:10 PM 40.8012 -74.1249 54° Northeast 309 356 8,600 2,786 Climbing FlightAware ADS-B
Thu 06:57:23 PM 40.8122 -74.1045 55° Northeast 307 353 9,200 2,400 Climbing FlightAware ADS-B
Thu 06:57:35 PM 40.8224 -74.0851 55° Northeast 319 367 9,600 1,034 Climbing FlightAware ADS-B
Thu 06:57:52 PM 40.8369 -74.0573 55° Northeast 323 372 9,700 522 Climbing FlightAware ADS-B
Thu 06:57:58 PM 40.8415 -74.0482 56° Northeast 322 371 9,800 545 Climbing FlightAware ADS-B
Thu 06:58:14 PM 40.8544 -74.0230 56° Northeast 322 371 9,900 667 Climbing FlightAware ADS-B
Thu 06:58:25 PM 40.8643 -74.0043 55° Northeast 330 380 10,100 1,200 Climbing FlightAware ADS-B
Thu 06:58:29 PM 40.8684 -73.9969 54° Northeast 339 390 10,200 1,622 Climbing FlightAware ADS-B
Thu 06:59:02 PM 40.9023 -73.9402 52° Northeast 370 426 11,100 1,692 Climbing FlightAware ADS-B
Thu 06:59:08 PM 40.9078 -73.9310 52° Northeast 376 433 11,300 3,188 Climbing FlightAware ADS-B
Thu 06:59:34 PM 40.9358 -73.8844 51° Northeast 368 423 12,800 3,400 Climbing FlightAware ADS-B
Thu 07:00:08 PM 40.9713 -73.8242 52° Northeast 363 418 14,700 2,545 Climbing FlightAware ADS-B
Thu 07:00:40 PM 41.0051 -73.7677 52° Northeast 386 444 15,600 1,569 Climbing FlightAware ADS-B
Thu 07:01:13 PM 41.0435 -73.7038 51° Northeast 410 472 16,400 2,095 Climbing FlightAware ADS-B
Thu 07:01:43 PM 41.0788 -73.6445 52° Northeast 406 467 17,800 2,361 Climbing FlightAware ADS-B
Thu 07:02:14 PM 41.1145 -73.5845 52° Northeast 414 476 18,800 1,909 Climbing FlightAware ADS-B
Thu 07:02:49 PM 41.1568 -73.5131 52° Northeast 425 489 19,900 2,091 Climbing FlightAware ADS-B
Thu 07:03:20 PM 41.1946 -73.4479 52° Northeast 426 490 21,100 2,206 Climbing FlightAware ADS-B
Thu 07:03:57 PM 41.2382 -73.3722 53° Northeast 431 496 22,400 2,060 Climbing FlightAware ADS-B
Thu 07:04:27 PM 41.2753 -73.3087 52° Northeast 435 501 23,400 1,909 Climbing FlightAware ADS-B
Thu 07:05:03 PM 41.3206 -73.2311 52° Northeast 442 509 24,500 1,612 Climbing FlightAware ADS-B
Thu 07:05:34 PM 41.3585 -73.1654 52° Northeast 450 518 25,200 1,574 Climbing FlightAware ADS-B
Thu 07:06:04 PM 41.3937 -73.0940 57° Northeast 456 525 26,100 1,600 Climbing FlightAware ADS-B
Thu 07:06:34 PM 41.4265 -73.0201 59° Northeast 461 531 26,800 1,475 Climbing FlightAware ADS-B
Thu 07:07:05 PM 41.4605 -72.9436 59° Northeast 468 539 27,600 1,391 Climbing FlightAware ADS-B
Thu 07:07:43 PM 41.5026 -72.8483 59° Northeast 474 545 28,400 1,165 Climbing FlightAware ADS-B
Thu 07:08:48 PM 41.5720 -72.6890 60° Northeast 489 563 29,600 1,200 Climbing FlightAware ADS-B
Thu 07:09:53 PM 41.6400 -72.5340 60° Northeast 493 567 31,000 1,565 Climbing FlightAware ADS-B
Thu 07:10:43 PM 41.7040 -72.3930 59° Northeast 487 560 32,600 1,771 Climbing FlightAware ADS-B
Thu 07:11:38 PM 41.7680 -72.2510 59° Northeast 480 552 34,100 1,516 Climbing FlightAware ADS-B
Thu 07:12:18 PM 41.8150 -72.1470 59° Northeast 477 549 35,000 1,412 Climbing FlightAware ADS-B
Thu 07:13:03 PM 41.8680 -72.0390 57° Northeast 468 539 36,100 1,263 Climbing FlightAware ADS-B
Thu 07:13:53 PM 41.9290 -71.9270 54° Northeast 461 531 37,000 568 Climbing FlightAware ADS-B
Thu 07:14:38 PM 41.9830 -71.8260 54° Northeast 462 532 37,000  Level FlightAware ADS-B
Thu 07:16:03 PM 42.0910 -71.6270 54° Northeast 460 529 37,000  Level FlightAware ADS-B
Thu 07:16:43 PM 42.1430 -71.5300 54° Northeast 459 528 37,000  Level FlightAware ADS-B
Thu 07:17:28 PM 42.1990 -71.4260 54° Northeast 459 528 37,000  Level FlightAware ADS-B
Thu 07:18:08 PM 42.2490 -71.3330 54° Northeast 458 527 37,000  Level FlightAware ADS-B
Thu 07:18:53 PM 42.3030 -71.2310 54° Northeast 458 527 37,000  Level FlightAware ADS-B
Thu 07:19:33 PM 42.3550 -71.1330 54° Northeast 457 526 37,000  Level FlightAware ADS-B
Thu 07:20:13 PM 42.4040 -71.0410 54° Northeast 457 526 37,000  Level FlightAware ADS-B
Thu 07:20:58 PM 42.4550 -70.9440 55° Northeast 457 526 37,000  Level FlightAware ADS-B
Thu 07:21:38 PM 42.5100 -70.8410 54° Northeast 457 526 37,000  Level FlightAware ADS-B
Thu 07:22:18 PM 42.5590 -70.7480 54° Northeast 457 526 37,000  Level FlightAware ADS-B
Thu 07:23:03 PM 42.6160 -70.6400 54° Northeast 456 525 37,000  Level FlightAware ADS-B
Thu 07:23:43 PM 42.6650 -70.5460 55° Northeast 456 525 37,000  Level FlightAware ADS-B
Thu 07:24:28 PM 42.7180 -70.4440 55° Northeast 456 525 37,000  Level FlightAware ADS-B
Thu 07:25:08 PM 42.7670 -70.3490 55° Northeast 455 524 37,000  Level FlightAware ADS-B
Thu 07:25:53 PM 42.8200 -70.2450 55° Northeast 455 524 37,000  Level FlightAware ADS-B
Thu 07:26:33 PM 42.8690 -70.1510 55° Northeast 454 522 37,000  Level FlightAware ADS-B
Thu 07:27:13 PM 42.9160 -70.0600 55° Northeast 456 525 37,000  Level FlightAware ADS-B
Thu 07:27:58 PM 42.9720 -69.9500 55° Northeast 456 525 37,000  Level FlightAware ADS-B
Thu 07:28:33 PM 43.0120 -69.8720 55° Northeast 457 526 37,000  Level FlightAware ADS-B
Thu 07:29:13 PM 43.0610 -69.7750 55° Northeast 457 526 37,000  Level FlightAware ADS-B
Thu 07:30:03 PM 43.1200 -69.6570 56° Northeast 458 527 37,000  Level FlightAware ADS-B
Thu 07:30:43 PM 43.1690 -69.5620 55° Northeast 458 527 37,000  Level FlightAware ADS-B
Thu 07:31:28 PM 43.2250 -69.4500 56° Northeast 459 528 37,000  Level FlightAware ADS-B
Thu 07:32:03 PM 43.2590 -69.3810 56° Northeast 461 531 37,000  Level FlightAware ADS-B
Thu 07:32:43 PM 43.3080 -69.2840 55° Northeast 463 533 37,000  Level FlightAware ADS-B
Thu 07:33:33 PM 43.3750 -69.1490 56° Northeast 463 533 37,000  Level FlightAware ADS-B
Thu 07:34:13 PM 43.4220 -69.0540 56° Northeast 464 534 37,000  Level FlightAware ADS-B
Thu 07:35:08 PM 43.4870 -68.9240 55° Northeast 466 536 37,000  Level FlightAware ADS-B
Thu 07:35:53 PM 43.5360 -68.8260 55° Northeast 466 536 37,000  Level FlightAware ADS-B
Thu 07:36:48 PM 43.6050 -68.6860 56° Northeast 466 536 37,000  Level FlightAware ADS-B
Thu 07:37:23 PM 43.6490 -68.5930 57° Northeast 467 537 37,000  Level FlightAware ADS-B
Thu 07:38:23 PM 43.7200 -68.4470 56° Northeast 468 539 37,000  Level FlightAware ADS-B
Thu 07:39:03 PM 43.7740 -68.3340 56° Northeast 468 539 37,000  Level FlightAware ADS-B
Thu 07:39:48 PM 43.8240 -68.2300 56° Northeast 468 539 37,000  Level FlightAware ADS-B
Thu 07:40:33 PM 43.8790 -68.1170 56° Northeast 467 537 37,000  Level FlightAware ADS-B
Thu 07:41:18 PM 43.9320 -68.0060 56° Northeast 467 537 37,000  Level FlightAware ADS-B
Thu 07:41:58 PM 43.9810 -67.9040 56° Northeast 467 537 37,000  Level FlightAware ADS-B
Thu 07:42:43 PM 44.0330 -67.7940 57° Northeast 466 536 37,000  Level FlightAware ADS-B
Thu 07:43:23 PM 44.0790 -67.6960 57° Northeast 466 536 37,000  Level FlightAware ADS-B
Thu 07:44:03 PM 44.1270 -67.5940 57° Northeast 466 536 37,000  Level FlightAware ADS-B
Thu 07:44:43 PM 44.1750 -67.4920 57° Northeast 460 529 37,000  Level FlightAware ADS-B
Thu 07:45:28 PM 44.2290 -67.3780 57° Northeast 457 526 37,000  Level FlightAware ADS-B
Thu 07:46:08 PM 44.2740 -67.2800 57° Northeast 455 524 37,000  Level FlightAware ADS-B
Thu 07:46:53 PM 44.3260 -67.1690 57° Northeast 453 521 37,000  Level FlightAware ADS-B
Thu 07:47:33 PM 44.3720 -67.0700 57° Northeast 452 520 37,000  Level FlightAware ADS-B
Thu 07:48:18 PM 44.4280 -66.9650 53° Northeast 446 513 37,000  Level FlightAware ADS-B
Thu 07:48:58 PM 44.4840 -66.8790 48° Northeast 439 505 37,000  Level FlightAware ADS-B
Thu 07:49:38 PM 44.5410 -66.7940 47° Northeast 439 505 37,000  Level FlightAware ADS-B
Thu 07:50:23 PM 44.6040 -66.6980 47° Northeast 439 505 37,000  Level FlightAware ADS-B
Thu 07:51:03 PM 44.6590 -66.6150 47° Northeast 439 505 37,000  Level FlightAware ADS-B
Thu 07:51:48 PM 44.7210 -66.5210 47° Northeast 440 506 37,000  Level FlightAware ADS-B
Thu 07:52:28 PM 44.7770 -66.4340 48° Northeast 441 507 37,000  Level FlightAware ADS-B
Thu 07:53:08 PM 44.8320 -66.3500 47° Northeast 442 509 37,000  Level FlightAware ADS-B
Thu 07:53:53 PM 44.8960 -66.2520 47° Northeast 448 516 37,000  Level FlightAware ADS-B
Thu 07:54:33 PM 44.9510 -66.1670 48° Northeast 449 517 37,000  Level FlightAware ADS-B
Thu 07:55:13 PM 45.0080 -66.0790 47° Northeast 450 518 37,000  Level FlightAware ADS-B
Thu 07:55:58 PM 45.0710 -65.9820 47° Northeast 450 518 37,000  Level FlightAware ADS-B
Thu 07:56:38 PM 45.1260 -65.8960 48° Northeast 451 519 37,000  Level FlightAware ADS-B
Thu 07:57:23 PM 45.1900 -65.7960 48° Northeast 452 520 37,000  Level FlightAware ADS-B
Thu 07:58:03 PM 45.2450 -65.7090 48° Northeast 453 521 37,000  Level FlightAware ADS-B
Thu 07:58:43 PM 45.3040 -65.6180 47° Northeast 453 521 37,000  Level FlightAware ADS-B
Thu 07:59:28 PM 45.3650 -65.5210 48° Northeast 453 521 37,000  Level FlightAware ADS-B
Thu 08:00:08 PM 45.4240 -65.4290 48° Northeast 453 521 37,000  Level FlightAware ADS-B
Thu 08:00:48 PM 45.4780 -65.3420 48° Northeast 448 516 37,000  Level FlightAware ADS-B
Thu 08:01:28 PM 45.5330 -65.2550 48° Northeast 447 514 37,000  Level FlightAware ADS-B
Thu 08:02:18 PM 45.6020 -65.1450 48° Northeast 452 520 37,000  Level FlightAware ADS-B
Thu 08:02:58 PM 45.6560 -65.0580 48° Northeast 451 519 37,000  Level FlightAware ADS-B
Thu 08:03:38 PM 45.7150 -64.9640 48° Northeast 451 519 37,000  Level FlightAware ADS-B
Thu 08:04:18 PM 45.7680 -64.8790 48° Northeast 452 520 37,000  Level FlightAware ADS-B
Thu 08:05:03 PM 45.8250 -64.7880 48° Northeast 452 520 37,000  Level FlightAware ADS-B
Thu 08:05:43 PM 45.8850 -64.6890 49° Northeast 450 518 37,000  Level FlightAware ADS-B
Thu 08:06:38 PM 45.9600 -64.5680 48° Northeast 450 518 37,000  Level FlightAware ADS-B
Thu 08:07:33 PM 46.0350 -64.4450 49° Northeast 449 517 37,000  Level FlightAware ADS-B
Thu 08:08:13 PM 46.0930 -64.3490 49° Northeast 450 518 37,000  Level FlightAware ADS-B
Thu 08:09:13 PM 46.1720 -64.2210 48° Northeast 450 518 37,000  Level FlightAware ADS-B
Thu 08:09:53 PM 46.2190 -64.1450 48° Northeast 450 518 37,000  Level FlightAware ADS-B
Thu 08:10:33 PM 46.2660 -64.0690 48° Northeast 450 518 37,000  Level FlightAware ADS-B
Thu 08:11:23 PM 46.3260 -63.9740 48° Northeast 450 518 37,000  Level FlightAware ADS-B
Thu 08:12:03 PM 46.3730 -63.8980 48° Northeast 450 518 37,000  Level FlightAware ADS-B
Thu 08:12:43 PM 46.4200 -63.8220 48° Northeast 450 518 37,000  Level FlightAware ADS-B
Thu 08:13:23 PM 46.4680 -63.7450 48° Northeast 450 518 37,000  Level FlightAware ADS-B
Thu 08:14:03 PM 46.5150 -63.6690 48° Northeast 450 518 37,000  Level FlightAware ADS-B
Thu 08:14:53 PM 46.5740 -63.5730 48° Northeast 450 518 37,000  Level FlightAware ADS-B
Thu 08:15:33 PM 46.6220 -63.4970 47° Northeast 450 518 37,000  Level FlightAware ADS-B
Thu 08:16:13 PM 46.6690 -63.4200 48° Northeast 450 518 37,000  Level FlightAware ADS-B
Thu 08:16:53 PM 46.7160 -63.3430 48° Northeast 450 518 37,000  Level FlightAware ADS-B
Thu 08:17:33 PM 46.7640 -63.2660 48° Northeast 450 518 37,000  Level FlightAware ADS-B
Thu 08:18:13 PM 46.8110 -63.1900 48° Northeast 450 518 37,000  Level FlightAware ADS-B
Thu 08:18:50 PM 46.9500 -62.8500 48° Northeast 450 518 37,000  Level Gander Center
Thu 08:19:50 PM 47.0333 -62.7333 44° Northeast 450 518 37,000  Level Gander Center
Thu 08:25:43 PM 47.5060 -61.9200 44° Northeast 448 516 37,000  Level FlightAware ADS-B
Thu 08:26:28 PM 47.5610 -61.8230 50° Northeast 448 516 37,000  Level FlightAware ADS-B
Thu 08:27:08 PM 47.6060 -61.7430 50° Northeast 448 516 37,000  Level FlightAware ADS-B
Thu 08:28:03 PM 47.6860 -61.5950 51° Northeast 449 517 37,000  Level FlightAware ADS-B
Thu 08:28:48 PM 47.7500 -61.4770 51° Northeast 451 519 37,000  Level FlightAware ADS-B
Thu 08:29:33 PM 47.8020 -61.3800 51° Northeast 451 519 37,000  Level FlightAware ADS-B
Thu 08:30:13 PM 47.8470 -61.2980 51° Northeast 451 519 37,000  Level FlightAware ADS-B
Thu 08:30:53 PM 47.8920 -61.2160 51° Northeast 451 519 37,000  Level FlightAware ADS-B
Thu 08:31:38 PM 47.9360 -61.1340 51° Northeast 451 519 37,000  Level FlightAware ADS-B
Thu 08:32:13 PM 47.9810 -61.0510 51° Northeast 451 519 37,000  Level FlightAware ADS-B
Thu 08:33:03 PM 48.0370 -60.9480 51° Northeast 451 519 37,000  Level FlightAware ADS-B
Thu 08:33:43 PM 48.0810 -60.8660 51° Northeast 451 519 37,000  Level FlightAware ADS-B
Thu 08:34:23 PM 48.1260 -60.7830 51° Northeast 451 519 37,000  Level FlightAware ADS-B
Thu 08:35:03 PM 48.1710 -60.7010 51° Northeast 451 519 37,000  Level FlightAware ADS-B
Thu 08:35:43 PM 48.2150 -60.6180 51° Northeast 451 519 37,000  Level FlightAware ADS-B
Thu 08:36:33 PM 48.2710 -60.5140 51° Northeast 451 519 37,000  Level FlightAware ADS-B
Thu 08:37:13 PM 48.3160 -60.4320 50° Northeast 451 519 37,000  Level FlightAware ADS-B
Thu 08:37:53 PM 48.3600 -60.3490 51° Northeast 451 519 37,000  Level FlightAware ADS-B
Thu 08:38:33 PM 48.4050 -60.2660 51° Northeast 451 519 37,000  Level FlightAware ADS-B
Thu 08:38:50 PM 48.5333 -59.9500 51° Northeast 460 529 37,000  Level Gander Center
Thu 08:39:50 PM 48.6000 -59.8167 53° Northeast 460 529 37,000  Level Gander Center
Thu 08:40:50 PM 48.6833 -59.6333 55° Northeast 450 518 37,000  Level Gander Center
Thu 08:41:50 PM 48.7667 -59.5000 46° Northeast 460 529 37,000  Level Gander Center
Thu 08:42:50 PM 48.8500 -59.3333 53° Northeast 460 529 37,000  Level Gander Center
Thu 08:43:50 PM 48.9167 -59.2000 53° Northeast 460 529 37,000  Level Gander Center
Thu 08:44:50 PM 49.0000 -59.0333 53° Northeast 460 529 37,000  Level Gander Center
Thu 08:45:50 PM 49.0667 -58.8833 56° Northeast 460 529 37,000  Level Gander Center
Thu 08:46:50 PM 49.1500 -58.7333 50° Northeast 450 518 37,000  Level Gander Center
Thu 08:47:50 PM 49.2167 -58.5667 58° Northeast 450 518 37,000  Level Gander Center
Thu 08:48:50 PM 49.3000 -58.4167 50° Northeast 450 518 37,000  Level Gander Center
Thu 08:49:50 PM 49.3833 -58.2833 46° Northeast 450 518 37,000  Level Gander Center
Thu 08:50:50 PM 49.4333 -58.1167 65° Northeast 450 518 37,000  Level Gander Center
Thu 08:51:50 PM 49.5167 -57.9667 49° Northeast 440 506 37,000  Level Gander Center
Thu 08:52:50 PM 49.6000 -57.8000 52° Northeast 440 506 37,000  Level Gander Center
Thu 08:53:50 PM 49.6667 -57.6667 52° Northeast 440 506 37,000  Level Gander Center
Thu 08:54:50 PM 49.7333 -57.5000 58° Northeast 440 506 37,000  Level Gander Center
Thu 08:55:50 PM 49.8000 -57.3500 55° Northeast 440 506 37,000  Level Gander Center
Thu 08:56:50 PM 49.8833 -57.2000 49° Northeast 440 506 37,000  Level Gander Center
Thu 08:57:50 PM 49.9500 -57.0500 55° Northeast 440 506 37,000  Level Gander Center
Thu 08:58:50 PM 50.0167 -56.8833 58° Northeast 440 506 37,000  Level Gander Center
Thu 08:59:50 PM 50.0833 -56.7000 60° Northeast 470 541 37,000  Level Gander Center
Thu 09:00:50 PM 50.1333 -56.5000 69° East 470 541 37,000 100 Level Gander Center
Thu 09:01:50 PM 50.2000 -56.3500 55° Northeast 470 541 37,200 500 Climbing Gander Center
Thu 09:02:50 PM 50.2500 -56.1500 69° East 470 541 38,000 400 Climbing Gander Center
Thu 09:03:50 PM 50.3167 -55.9667 60° Northeast 470 541 38,000  Level Gander Center
Thu 09:04:50 PM 50.3667 -55.8000 65° Northeast 470 541 38,000  Level Gander Center
Thu 09:05:50 PM 50.4333 -55.6167 60° Northeast 470 541 38,000  Level Gander Center
Thu 09:06:50 PM 50.4833 -55.4167 68° East 460 529 38,000  Level Gander Center
Thu 09:07:50 PM 50.5500 -55.2500 58° Northeast 470 541 38,000  Level Gander Center
Thu 09:08:50 PM 50.6000 -55.0667 67° East 460 529 38,000  Level Gander Center
Thu 09:14:28 PM 50.9050 -54.0830 67° East 474 545 38,000  Level FlightAware ADS-B
Thu 09:15:18 PM 50.9540 -53.9150 65° Northeast 473 544 38,000  Level FlightAware ADS-B
Thu 09:15:58 PM 50.9900 -53.7870 66° East 471 542 38,000  Level FlightAware ADS-B
Thu 09:16:38 PM 51.0270 -53.6590 65° Northeast 470 541 38,000  Level FlightAware ADS-B
Thu 09:17:23 PM 51.0650 -53.5250 66° East 471 542 38,000  Level FlightAware ADS-B
Thu 09:18:08 PM 51.1060 -53.3820 65° Northeast 472 543 38,000  Level FlightAware ADS-B
Thu 09:18:43 PM 51.1340 -53.2810 66° East 472 543 38,000  Level FlightAware ADS-B
Thu 09:19:28 PM 51.1720 -53.1500 65° Northeast 472 543 38,000  Level FlightAware ADS-B
Thu 09:20:08 PM 51.2040 -53.0430 64° Northeast 472 543 38,000  Level FlightAware ADS-B
Thu 09:20:48 PM 51.2350 -52.9350 65° Northeast 472 543 38,000  Level FlightAware ADS-B
Thu 09:21:38 PM 51.2740 -52.8010 65° Northeast 472 543 38,000  Level FlightAware ADS-B
Thu 09:22:18 PM 51.3060 -52.6930 65° Northeast 472 543 38,000  Level FlightAware ADS-B
Thu 09:22:58 PM 51.3370 -52.5850 65° Northeast 472 543 38,000  Level FlightAware ADS-B
Thu 09:23:38 PM 51.3680 -52.4780 65° Northeast 472 543 38,000  Level FlightAware ADS-B
Thu 09:24:18 PM 51.4000 -52.3700 65° Northeast 472 543 38,000  Level FlightAware ADS-B
Thu 09:25:08 PM 51.4390 -52.2350 65° Northeast 472 543 38,000  Level FlightAware ADS-B
Thu 09:25:48 PM 51.4700 -52.1270 65° Northeast 472 543 38,000  Level FlightAware ADS-B
Thu 09:26:28 PM 51.5020 -52.0190 65° Northeast 472 543 38,000  Level FlightAware ADS-B
Thu 09:27:08 PM 51.5330 -51.9110 65° Northeast 472 543 38,000  Level FlightAware ADS-B
Thu 09:27:48 PM 51.5640 -51.8020 65° Northeast 472 543 38,000  Level FlightAware ADS-B
Thu 09:28:38 PM 51.6040 -51.6670 64° Northeast 472 543 38,000  Level FlightAware ADS-B
Thu 09:29:10 PM 51.6667 -51.1500 64° Northeast 480 552 38,000  Level Gander Center
Thu 09:29:50 PM 51.7167 -51.0000 62° Northeast 470 541 38,000  Level Gander Center
Thu 09:30:50 PM 51.7667 -50.8000 68° East 470 541 38,000  Level Gander Center
Thu 09:31:50 PM 51.8167 -50.6000 68° East 480 552 38,000  Level Gander Center
Thu 09:32:50 PM 51.8667 -50.4000 68° East 480 552 38,000  Level Gander Center
Thu 09:33:50 PM 51.9167 -50.2167 66° East 480 552 38,000  Level Gander Center
Thu 09:34:50 PM 51.9500 -50.0167 75° East 470 541 38,000  Level Gander Center
Thu 09:37:00 PM 52.0452 -49.6815 77° East  Level FlightAware Approximate
Thu 09:44:00 PM 52.2373 -48.2448 77° East  Level FlightAware Approximate
Thu 09:45:00 PM 52.2633 -48.0386 78° East  Level FlightAware Approximate
Thu 09:46:00 PM 52.2890 -47.8321 78° East  Level FlightAware Approximate
Thu 09:47:00 PM 52.3143 -47.6254 79° East  Level FlightAware Approximate
Thu 09:48:00 PM 52.3392 -47.4184 79° East  Level FlightAware Approximate
Thu 09:49:00 PM 52.3638 -47.2113 79° East  Level FlightAware Approximate
Thu 09:50:00 PM 52.3880 -47.0038 79° East  Level FlightAware Approximate
Thu 09:51:00 PM 52.4119 -46.7962 79° East  Level FlightAware Approximate
Thu 09:52:00 PM 52.4353 -46.5883 79° East  Level FlightAware Approximate
Thu 09:53:00 PM 52.4585 -46.3803 80° East  Level FlightAware Approximate
Thu 09:54:00 PM 52.4812 -46.1720 80° East  Level FlightAware Approximate
Thu 09:55:00 PM 52.5036 -45.9635 80° East  Level FlightAware Approximate
Thu 09:56:00 PM 52.5256 -45.7547 80° East  Level FlightAware Approximate
Thu 09:57:00 PM 52.5473 -45.5458 80° East  Level FlightAware Approximate
Thu 09:58:00 PM 52.5686 -45.3367 80° East  Level FlightAware Approximate
Thu 09:59:00 PM 52.5895 -45.1273 81° East  Level FlightAware Approximate
Thu 10:00:00 PM 52.6100 -44.9178 81° East  Level FlightAware Approximate
Thu 10:01:00 PM 52.6302 -44.7081 81° East  Level FlightAware Approximate
Thu 10:02:00 PM 52.6500 -44.4982 81° East  Level FlightAware Approximate
Thu 10:03:00 PM 52.6695 -44.2881 81° East  Level FlightAware Approximate
Thu 10:04:00 PM 52.6885 -44.0778 81° East  Level FlightAware Approximate
Thu 10:05:00 PM 52.7072 -43.8673 82° East  Level FlightAware Approximate
Thu 10:06:00 PM 52.7255 -43.6566 82° East  Level FlightAware Approximate
Thu 10:07:00 PM 52.7435 -43.4458 82° East  Level FlightAware Approximate
Thu 10:08:00 PM 52.7610 -43.2348 82° East  Level FlightAware Approximate
Thu 10:09:00 PM 52.7782 -43.0236 82° East  Level FlightAware Approximate
Thu 10:10:00 PM 52.7951 -42.8123 82° East  Level FlightAware Approximate
Thu 10:11:00 PM 52.8115 -42.6008 83° East  Level FlightAware Approximate
Thu 10:12:00 PM 52.8286 -42.3893 82° East  Level FlightAware Approximate
Thu 10:13:00 PM 52.8457 -42.1778 82° East  Level FlightAware Approximate
Thu 10:14:00 PM 52.8625 -41.9661 82° East  Level FlightAware Approximate
Thu 10:15:00 PM 52.8789 -41.7543 83° East  Level FlightAware Approximate
Thu 10:16:00 PM 52.8950 -41.5423 83° East  Level FlightAware Approximate
Thu 10:17:00 PM 52.9106 -41.3302 83° East  Level FlightAware Approximate
Thu 10:18:00 PM 52.9259 -41.1179 83° East  Level FlightAware Approximate
Thu 10:19:00 PM 52.9408 -40.9054 83° East  Level FlightAware Approximate
Thu 10:20:00 PM 52.9554 -40.6928 83° East  Level FlightAware Approximate
Thu 10:21:00 PM 52.9695 -40.4801 84° East  Level FlightAware Approximate
Thu 10:22:00 PM 52.9833 -40.2672 84° East  Level FlightAware Approximate
Thu 10:23:00 PM 52.9967 -40.0542 84° East  Level FlightAware Approximate
Thu 10:24:00 PM 53.0224 -39.8447 76° East  Level FlightAware Approximate
Thu 10:25:00 PM 53.0521 -39.6361 77° East  Level FlightAware Approximate
Thu 10:26:00 PM 53.0815 -39.4272 77° East  Level FlightAware Approximate
Thu 10:27:00 PM 53.1105 -39.2180 77° East  Level FlightAware Approximate
Thu 10:28:00 PM 53.1391 -39.0085 77° East  Level FlightAware Approximate
Thu 10:29:00 PM 53.1674 -38.7988 77° East  Level FlightAware Approximate
Thu 10:30:00 PM 53.1953 -38.5888 77° East  Level FlightAware Approximate
Thu 10:31:00 PM 53.2228 -38.3785 78° East  Level FlightAware Approximate
Thu 10:32:00 PM 53.2500 -38.1679 78° East  Level FlightAware Approximate
Thu 10:33:00 PM 53.2768 -37.9571 78° East  Level FlightAware Approximate
Thu 10:34:00 PM 53.3032 -37.7460 78° East  Level FlightAware Approximate
Thu 10:35:00 PM 53.3292 -37.5347 78° East  Level FlightAware Approximate
Thu 10:36:00 PM 53.3549 -37.3231 78° East  Level FlightAware Approximate
Thu 10:37:00 PM 53.3802 -37.1112 79° East  Level FlightAware Approximate
Thu 10:38:00 PM 53.4051 -36.8991 79° East  Level FlightAware Approximate
Thu 10:39:00 PM 53.4296 -36.6868 79° East  Level FlightAware Approximate
Thu 10:40:00 PM 53.4538 -36.4742 79° East  Level FlightAware Approximate
Thu 10:41:00 PM 53.4776 -36.2613 79° East  Level FlightAware Approximate
Thu 10:42:00 PM 53.5010 -36.0483 79° East  Level FlightAware Approximate
Thu 10:43:00 PM 53.5240 -35.8349 80° East  Level FlightAware Approximate
Thu 10:44:00 PM 53.5467 -35.6214 80° East  Level FlightAware Approximate
Thu 10:45:00 PM 53.5690 -35.4076 80° East  Level FlightAware Approximate
Thu 10:46:00 PM 53.5908 -35.1937 80° East  Level FlightAware Approximate
Thu 10:47:00 PM 53.6123 -34.9795 80° East  Level FlightAware Approximate
Thu 10:48:00 PM 53.6335 -34.7650 80° East  Level FlightAware Approximate
Thu 10:49:00 PM 53.6542 -34.5504 81° East  Level FlightAware Approximate
Thu 10:50:00 PM 53.6745 -34.3356 81° East  Level FlightAware Approximate
Thu 10:51:00 PM 53.6945 -34.1205 81° East  Level FlightAware Approximate
Thu 10:52:00 PM 53.7141 -33.9053 81° East  Level FlightAware Approximate
Thu 10:53:00 PM 53.7333 -33.6898 81° East  Level FlightAware Approximate
Thu 10:54:00 PM 53.7521 -33.4742 82° East  Level FlightAware Approximate
Thu 10:55:00 PM 53.7705 -33.2583 82° East  Level FlightAware Approximate
Thu 10:56:00 PM 53.7886 -33.0423 82° East  Level FlightAware Approximate
Thu 10:57:00 PM 53.8062 -32.8261 82° East  Level FlightAware Approximate
Thu 10:58:00 PM 53.8235 -32.6097 82° East  Level FlightAware Approximate
Thu 10:59:00 PM 53.8403 -32.3931 82° East  Level FlightAware Approximate
Thu 11:00:00 PM 53.8568 -32.1764 83° East  Level FlightAware Approximate
Thu 11:01:00 PM 53.8729 -31.9595 83° East  Level FlightAware Approximate
Thu 11:02:00 PM 53.8886 -31.7424 83° East  Level FlightAware Approximate
Thu 11:03:00 PM 53.9039 -31.5252 83° East  Level FlightAware Approximate
Thu 11:04:00 PM 53.9188 -31.3078 83° East  Level FlightAware Approximate
Thu 11:05:00 PM 53.9333 -31.0903 83° East  Level FlightAware Approximate
Thu 11:06:00 PM 53.9474 -30.8726 84° East  Level FlightAware Approximate
Thu 11:07:00 PM 53.9612 -30.6547 84° East  Level FlightAware Approximate
Thu 11:08:00 PM 53.9745 -30.4368 84° East  Level FlightAware Approximate
Thu 11:09:00 PM 53.9874 -30.2186 84° East  Level FlightAware Approximate
Thu 11:10:00 PM 54.0000 -30.0004 84° East  Level FlightAware Approximate
Thu 11:11:00 PM 54.0089 -29.7816 86° East  Level FlightAware Approximate
Thu 11:12:00 PM 54.0174 -29.5627 86° East  Level FlightAware Approximate
Thu 11:13:00 PM 54.0255 -29.3437 86° East  Level FlightAware Approximate
Thu 11:14:00 PM 54.0332 -29.1246 86° East  Level FlightAware Approximate
Thu 11:15:00 PM 54.0405 -28.9054 87° East  Level FlightAware Approximate
Thu 11:16:00 PM 54.0474 -28.6862 87° East  Level FlightAware Approximate
Thu 11:17:00 PM 54.0540 -28.4669 87° East  Level FlightAware Approximate
Thu 11:18:00 PM 54.0601 -28.2475 87° East  Level FlightAware Approximate
Thu 11:19:00 PM 54.0658 -28.0280 87° East  Level FlightAware Approximate
Thu 11:20:00 PM 54.0711 -27.8085 88° East  Level FlightAware Approximate
Thu 11:21:00 PM 54.0760 -27.5890 88° East  Level FlightAware Approximate
Thu 11:22:00 PM 54.0806 -27.3694 88° East  Level FlightAware Approximate
Thu 11:23:00 PM 54.0847 -27.1497 88° East  Level FlightAware Approximate
Thu 11:24:00 PM 54.0884 -26.9301 88° East  Level FlightAware Approximate
Thu 11:25:00 PM 54.0917 -26.7103 88° East  Level FlightAware Approximate
Thu 11:26:00 PM 54.0946 -26.4906 89° East  Level FlightAware Approximate
Thu 11:27:00 PM 54.0971 -26.2708 89° East  Level FlightAware Approximate
Thu 11:28:00 PM 54.0993 -26.0510 89° East  Level FlightAware Approximate
Thu 11:29:00 PM 54.1010 -25.8311 89° East  Level FlightAware Approximate
Thu 11:30:00 PM 54.1023 -25.6113 89° East  Level FlightAware Approximate
Thu 11:31:00 PM 54.1032 -25.3914 90° East  Level FlightAware Approximate
Thu 11:32:00 PM 54.1037 -25.1716 90° East  Level FlightAware Approximate
Thu 11:33:00 PM 54.1038 -24.9517 90° East  Level FlightAware Approximate
Thu 11:34:00 PM 54.1035 -24.7318 90° East  Level FlightAware Approximate
Thu 11:35:00 PM 54.1028 -24.5119 90° East  Level FlightAware Approximate
Thu 11:36:00 PM 54.1017 -24.2921 90° East  Level FlightAware Approximate
Thu 11:37:00 PM 54.1003 -24.0723 91° East  Level FlightAware Approximate
Thu 11:38:00 PM 54.0984 -23.8524 91° East  Level FlightAware Approximate
Thu 11:39:00 PM 54.0961 -23.6326 91° East  Level FlightAware Approximate
Thu 11:40:00 PM 54.0934 -23.4128 91° East  Level FlightAware Approximate
Thu 11:41:00 PM 54.0903 -23.1931 91° East  Level FlightAware Approximate
Thu 11:42:00 PM 54.0868 -22.9734 91° East  Level FlightAware Approximate
Thu 11:43:00 PM 54.0829 -22.7537 92° East  Level FlightAware Approximate
Thu 11:44:00 PM 54.0786 -22.5341 92° East  Level FlightAware Approximate
Thu 11:45:00 PM 54.0739 -22.3145 92° East  Level FlightAware Approximate
Thu 11:46:00 PM 54.0688 -22.0950 92° East  Level FlightAware Approximate
Thu 11:47:00 PM 54.0633 -21.8755 92° East  Level FlightAware Approximate
Thu 11:48:00 PM 54.0574 -21.6561 93° East  Level FlightAware Approximate
Thu 11:49:00 PM 54.0512 -21.4368 93° East  Level FlightAware Approximate
Thu 11:50:00 PM 54.0445 -21.2175 93° East  Level FlightAware Approximate
Thu 11:51:00 PM 54.0374 -20.9983 93° East  Level FlightAware Approximate
Thu 11:52:00 PM 54.0299 -20.7791 93° East  Level FlightAware Approximate
Thu 11:53:00 PM 54.0220 -20.5601 93° East  Level FlightAware Approximate
Thu 11:54:00 PM 54.0137 -20.3411 94° East  Level FlightAware Approximate
Thu 11:55:00 PM 54.0050 -20.1223 94° East  Level FlightAware Approximate
Thu 11:56:00 PM 53.9943 -19.9037 96° East  Level FlightAware Approximate
Thu 11:57:00 PM 53.9812 -19.6856 96° East  Level FlightAware Approximate
Thu 11:58:00 PM 53.9676 -19.4676 96° East  Level FlightAware Approximate
Thu 11:59:00 PM 53.9537 -19.2498 96° East  Level FlightAware Approximate
Fri 12:00:00 AM 53.9393 -19.0321 96° East  Level FlightAware Approximate
Fri 12:01:00 AM 53.9246 -18.8146 96° East  Level FlightAware Approximate
Fri 12:02:00 AM 53.9095 -18.5972 97° East  Level FlightAware Approximate
Fri 12:03:00 AM 53.8940 -18.3800 97° East  Level FlightAware Approximate
Fri 12:04:00 AM 53.8781 -18.1630 97° East  Level FlightAware Approximate
Fri 12:05:00 AM 53.8618 -17.9461 97° East  Level FlightAware Approximate
Fri 12:06:00 AM 53.8451 -17.7293 97° East  Level FlightAware Approximate
Fri 12:07:00 AM 53.8280 -17.5128 98° East  Level FlightAware Approximate
Fri 12:08:00 AM 53.8105 -17.2964 98° East  Level FlightAware Approximate
Fri 12:09:00 AM 53.7926 -17.0803 98° East  Level FlightAware Approximate
Fri 12:10:00 AM 53.7744 -16.8643 98° East  Level FlightAware Approximate
Fri 12:11:00 AM 53.7558 -16.6485 98° East  Level FlightAware Approximate
Fri 12:12:00 AM 53.7367 -16.4329 98° East  Level FlightAware Approximate
Fri 12:13:00 AM 53.7173 -16.2175 99° East  Level FlightAware Approximate
Fri 12:14:00 AM 53.6975 -16.0023 99° East  Level FlightAware Approximate
Fri 12:15:00 AM 53.6773 -15.7872 99° East  Level FlightAware Approximate
Fri 12:16:00 AM 53.6568 -15.5724 99° East  Level FlightAware Approximate
Fri 12:17:00 AM 53.6358 -15.3579 99° East  Level FlightAware Approximate
Fri 12:18:00 AM 53.6145 -15.1435 99° East  Level FlightAware Approximate
Fri 12:19:00 AM 53.5928 -14.9293 100° East  Level FlightAware Approximate
Fri 12:20:00 AM 53.5709 -14.7153 100° East  Level FlightAware Approximate
Fri 12:21:00 AM 53.5486 -14.5016 100° East  Level FlightAware Approximate
Fri 12:21:28 AM 52.8560 -12.7800 100° East 471 542 38,000  Level FlightAware ADS-B
Fri 12:22:00 AM 53.5259 -14.2880 100° East  Level FlightAware Approximate
Fri 12:22:08 AM 52.8440 -12.6310 98° East 472 543 38,000  Level FlightAware ADS-B
Fri 12:22:58 AM 52.8310 -12.4570 97° East 473 544 38,000  Level FlightAware ADS-B
Fri 12:23:38 AM 52.8200 -12.3150 97° East 473 544 38,000  Level FlightAware ADS-B
Fri 12:24:23 AM 52.8070 -12.1560 98° East 473 544 38,000  Level FlightAware ADS-B
Fri 12:25:03 AM 52.7960 -12.0130 97° East 474 545 38,000  Level FlightAware ADS-B
Fri 12:25:43 AM 52.7840 -11.8690 98° East 474 545 38,000  Level FlightAware ADS-B
Fri 12:26:28 AM 52.7700 -11.7070 98° East 475 547 38,000  Level FlightAware ADS-B
Fri 12:27:08 AM 52.7580 -11.5640 98° East 476 548 38,000  Level FlightAware ADS-B
Fri 12:27:43 AM 52.7470 -11.4380 98° East 477 549 38,000  Level FlightAware ADS-B
Fri 12:28:23 AM 52.7350 -11.2970 98° East 479 551 38,000  Level FlightAware ADS-B
Fri 12:29:13 AM 52.7190 -11.1180 98° East 480 552 38,000  Level FlightAware ADS-B
Fri 12:29:58 AM 52.7030 -10.9480 99° East 482 555 38,000  Level FlightAware ADS-B
Fri 12:30:38 AM 52.6900 -10.8050 98° East 481 554 38,000  Level FlightAware ADS-B
Fri 12:31:18 AM 52.6760 -10.6590 99° East 481 554 38,000  Level FlightAware ADS-B
Fri 12:32:03 AM 52.6610 -10.4960 99° East 481 554 38,000  Level FlightAware ADS-B
Fri 12:32:43 AM 52.6470 -10.3500 99° East 482 555 38,000  Level FlightAware ADS-B
Fri 12:33:23 AM 52.6330 -10.2060 99° East 482 555 38,000  Level FlightAware ADS-B
Fri 12:34:08 AM 52.6160 -10.0440 100° East 483 556 38,000  Level FlightAware ADS-B
Fri 12:34:43 AM 52.6040 -9.9220 99° East 483 556 38,000  Level FlightAware ADS-B
Fri 12:35:33 AM 52.5870 -9.7540 99° East 482 555 38,000  Level FlightAware ADS-B
Fri 12:36:13 AM 52.5700 -9.5920 100° East 482 555 38,000  Level FlightAware ADS-B
Fri 12:36:58 AM 52.5530 -9.4310 100° East 481 554 38,000  Level FlightAware ADS-B
Fri 12:37:38 AM 52.5380 -9.2890 100° East 481 554 38,000  Level FlightAware ADS-B
Fri 12:38:18 AM 52.5220 -9.1460 100° East 481 554 38,000 -1,286 Level FlightAware ADS-B
Fri 12:38:48 AM 52.4995 -8.9873 100° East 444 511 36,500  Descending FlightAware UK
Fri 12:39:03 AM 52.5050 -8.9840 100° East 481 554 38,000  Climbing FlightAware ADS-B
Fri 12:39:06 AM 52.4925 -8.9224 100° East 450 518 36,500 -6,000 Descending FlightAware UK
Fri 12:39:18 AM 52.4877 -8.8794 100° East 452 520 36,500  Level FlightAware UK
Fri 12:39:36 AM 52.4803 -8.8145 101° East 452 520 36,500 3,000 Level FlightAware UK
Fri 12:39:48 AM 52.4870 -8.8230 101° East 480 552 38,000  Climbing FlightAware ADS-B
Fri 12:40:06 AM 52.4684 -8.7068 101° East 452 520 36,500  Descending FlightAware UK
Fri 12:40:23 AM 52.4730 -8.6970 100° East 479 551 38,000  Climbing FlightAware ADS-B
Fri 12:40:30 AM 52.4589 -8.6216 100° East 450 518 36,500 -4,737 Descending FlightAware UK
Fri 12:40:42 AM 52.4542 -8.5789 100° East 448 516 36,500  Level FlightAware UK
Fri 12:41:06 AM 52.4444 -8.4931 101° East 446 513 36,500 3,462 Level FlightAware UK
Fri 12:41:08 AM 52.4540 -8.5370 101° East 479 551 38,000  Climbing FlightAware ADS-B
Fri 12:41:24 AM 52.4369 -8.4289 101° East 444 511 36,500 -2,647 Descending FlightAware UK
Fri 12:41:42 AM 52.4295 -8.3648 101° East 446 513 36,500 3,103 Level FlightAware UK
Fri 12:41:53 AM 52.4360 -8.3760 101° East 481 554 38,000  Climbing FlightAware ADS-B
Fri 12:42:12 AM 52.4171 -8.2577 101° East 450 518 36,500 -2,432 Descending FlightAware UK
Fri 12:42:30 AM 52.4097 -8.1933 101° East 454 522 36,500 4,286 Level FlightAware UK
Fri 12:42:33 AM 52.4190 -8.2290 101° East 481 554 38,000  Climbing FlightAware ADS-B
Fri 12:42:48 AM 52.4023 -8.1290 101° East 456 525 36,500 -2,727 Descending FlightAware UK
Fri 12:43:06 AM 52.3949 -8.0649 101° East 456 525 36,500 3,000 Level FlightAware UK
Fri 12:43:18 AM 52.4000 -8.0730 101° East 479 551 38,000  Climbing FlightAware ADS-B
Fri 12:43:36 AM 52.3820 -7.9574 101° East 454 522 36,500 -2,500 Descending FlightAware UK
Fri 12:43:54 AM 52.3743 -7.8936 101° East 454 522 36,500 4,091 Level FlightAware UK
Fri 12:43:58 AM 52.3820 -7.9220 101° East 477 549 38,000  Climbing FlightAware ADS-B
Fri 12:44:18 AM 52.3640 -7.8086 101° East 458 527 36,500 -2,368 Descending FlightAware UK
Fri 12:44:36 AM 52.3564 -7.7449 101° East 456 525 36,500 4,500 Level FlightAware UK
Fri 12:44:38 AM 52.3640 -7.7770 101° East 478 550 38,000  Climbing FlightAware ADS-B
Fri 12:44:54 AM 52.3486 -7.6814 101° East 456 525 36,500 -2,647 Descending FlightAware UK
Fri 12:45:12 AM 52.3409 -7.6177 101° East 458 527 36,500 3,103 Level FlightAware UK
Fri 12:45:23 AM 52.3450 -7.6190 101° East 478 550 38,000  Climbing FlightAware ADS-B
Fri 12:45:42 AM 52.3281 -7.5119 101° East 448 516 36,500 -2,432 Descending FlightAware UK
Fri 12:46:00 AM 52.3203 -7.4485 101° East 448 516 36,500 4,286 Level FlightAware UK
Fri 12:46:03 AM 52.3280 -7.4800 101° East 478 550 38,000  Climbing FlightAware ADS-B
Fri 12:46:18 AM 52.3123 -7.3844 101° East 448 516 36,500 -2,727 Descending FlightAware UK
Fri 12:46:36 AM 52.3043 -7.3212 102° East 448 516 36,500 3,000 Level FlightAware UK
Fri 12:46:48 AM 52.3080 -7.3220 102° East 477 549 38,000  Climbing FlightAware ADS-B
Fri 12:47:06 AM 52.2911 -7.2157 102° East 448 516 36,500 -2,500 Descending FlightAware UK
Fri 12:47:24 AM 52.2832 -7.1525 102° East 450 518 36,500 4,091 Level FlightAware UK
Fri 12:47:28 AM 52.2900 -7.1800 102° East 478 550 38,000  Climbing FlightAware ADS-B
Fri 12:47:48 AM 52.2724 -7.0683 102° East 448 516 36,500 -2,368 Descending FlightAware UK
Fri 12:48:06 AM 52.2644 -7.0051 102° East 444 511 36,500 4,500 Level FlightAware UK
Fri 12:48:08 AM 52.2710 -7.0360 102° East 478 550 38,000  Climbing FlightAware ADS-B
Fri 12:48:24 AM 52.2565 -6.9418 102° East 444 511 36,500 -2,647 Descending FlightAware UK
Fri 12:48:42 AM 52.2483 -6.8785 102° East 448 516 36,500 3,103 Level FlightAware UK
Fri 12:48:53 AM 52.2510 -6.8790 102° East 479 551 38,000  Climbing FlightAware ADS-B
Fri 12:49:12 AM 52.2345 -6.7732 102° East 450 518 36,500  Descending FlightAware UK
Fri 12:49:28 AM 52.2350 -6.7540 102° East 479 551 38,000  Climbing FlightAware ADS-B
Fri 12:49:30 AM 52.2261 -6.7099 102° East 452 520 36,500 -4,500 Descending FlightAware UK
Fri 12:49:48 AM 52.2179 -6.6466 102° East 452 520 36,500  Level FlightAware UK
Fri 12:50:06 AM 52.2095 -6.5832 102° East 450 518 36,500  Level FlightAware UK
Fri 12:50:24 AM 52.2011 -6.5198 102° East 452 520 36,500 2,813 Level FlightAware UK
Fri 12:50:38 AM 52.2020 -6.5060 102° East 481 554 38,000  Climbing FlightAware ADS-B
Fri 12:50:42 AM 52.1927 -6.4564 102° East 450 518 36,500 -5,625 Descending FlightAware UK
Fri 12:50:54 AM 52.1872 -6.4140 102° East 450 518 36,500  Level FlightAware UK
Fri 12:51:12 AM 52.1787 -6.3504 102° East 452 520 36,500 3,103 Level FlightAware UK
Fri 12:51:23 AM 52.1810 -6.3520 102° East 480 552 38,000  Climbing FlightAware ADS-B
Fri 12:51:42 AM 52.1643 -6.2437 102° East 452 520 36,500 -2,432 Descending FlightAware UK
Fri 12:52:00 AM 52.1561 -6.1800 102° East 454 522 36,500 4,286 Level FlightAware UK
Fri 12:52:03 AM 52.1630 -6.2090 102° East 481 554 38,000  Climbing FlightAware ADS-B
Fri 12:52:18 AM 52.1520 -6.1153 102° East 454 522 36,500  Descending FlightAware UK
Fri 12:52:33 AM 52.1540 -6.1010 97° East 480 552 38,000  Climbing FlightAware ADS-B
Fri 12:52:36 AM 52.1471 -6.0510 97° East 454 522 36,500 -6,000 Descending FlightAware UK
Fri 12:52:48 AM 52.1436 -6.0080 97° East 454 522 36,500  Level FlightAware UK
Fri 12:53:06 AM 52.1383 -5.9439 98° East 452 520 36,500 2,571 Level FlightAware UK
Fri 12:53:23 AM 52.1390 -5.9250 98° East 481 554 38,000  Climbing FlightAware ADS-B
Fri 12:53:24 AM 52.1329 -5.8796 98° East 454 522 36,500 -4,737 Descending FlightAware UK
Fri 12:53:42 AM 52.1272 -5.8154 98° East 456 525 36,500  Level FlightAware UK
Fri 12:54:00 AM 52.1211 -5.7513 99° East 454 522 36,500 3,462 Level FlightAware UK
Fri 12:54:08 AM 52.1230 -5.7550 99° East 481 554 38,000  Climbing FlightAware ADS-B
Fri 12:54:24 AM 52.1127 -5.6657 99° East 458 527 36,500 -2,647 Descending FlightAware UK
Fri 12:54:42 AM 52.1067 -5.6015 99° East 456 525 36,500 3,750 Level FlightAware UK
Fri 12:54:48 AM 52.1110 -5.6200 99° East 481 554 38,000  Climbing FlightAware ADS-B
Fri 12:55:07 AM 52.0993 -5.5151 99° East 456 525 36,500 -2,500 Descending FlightAware UK
Fri 12:55:24 AM 52.0939 -5.4516 98° East 458 527 36,500 3,462 Level FlightAware UK
Fri 12:55:33 AM 52.0970 -5.4640 98° East 480 552 38,000  Climbing FlightAware ADS-B
Fri 12:55:49 AM 52.0866 -5.3652 98° East 458 527 36,500 -2,727 Descending FlightAware UK
Fri 12:56:06 AM 52.0813 -5.3019 98° East 458 527 36,500 3,750 Level FlightAware UK
Fri 12:56:13 AM 52.0850 -5.3220 98° East 480 552 38,000  Climbing FlightAware ADS-B
Fri 12:56:31 AM 52.0736 -5.2159 98° East 454 522 36,500 -2,500 Descending FlightAware UK
Fri 12:56:49 AM 52.0678 -5.1521 98° East 452 520 36,500 4,091 Level FlightAware UK
Fri 12:56:53 AM 52.0720 -5.1820 98° East 478 550 38,000  Climbing FlightAware ADS-B
Fri 12:57:13 AM 52.0600 -5.0672 98° East 454 522 36,500 -2,368 Descending FlightAware UK
Fri 12:57:31 AM 52.0541 -5.0038 98° East 454 522 36,500 3,750 Level FlightAware UK
Fri 12:57:37 AM 52.0560 -5.0069 98° East 478 550 38,000  Climbing FlightAware ADS-B
Fri 12:57:55 AM 52.0464 -4.9190 98° East 452 520 36,500  Descending FlightAware UK
Fri 12:58:08 AM 52.0458 -4.8970 98° East 478 550 38,000  Climbing FlightAware ADS-B
Fri 12:58:25 AM 52.0368 -4.8123 98° East 452 520 36,500  Descending FlightAware UK
Fri 12:58:41 AM 52.0353 -4.7839 98° East 478 550 38,000  Climbing FlightAware ADS-B
Fri 12:59:01 AM 52.0251 -4.6849 98° East 452 520 36,500  Descending FlightAware UK
Fri 12:59:11 AM 52.0253 -4.6771 98° East 478 550 38,000  Climbing FlightAware ADS-B
Fri 12:59:37 AM 52.0131 -4.5583 98° East 456 525 36,500  Descending FlightAware UK
Fri 12:59:42 AM 52.0148 -4.5669 98° East 477 549 38,000  Climbing FlightAware ADS-B
Fri 01:00:01 AM 52.0048 -4.4730 98° East 452 520 36,500  Descending FlightAware UK
Fri 01:00:12 AM 52.0045 -4.4611 98° East 477 549 38,000  Climbing FlightAware ADS-B
Fri 01:00:31 AM 51.9947 -4.3673 98° East 452 520 36,500  Descending FlightAware UK
Fri 01:00:43 AM 51.9940 -4.3520 98° East 477 549 38,000  Climbing FlightAware ADS-B
Fri 01:01:07 AM 51.9826 -4.2405 98° East 454 522 36,500  Descending FlightAware UK
Fri 01:01:13 AM 51.9835 -4.2455 98° East 478 550 38,000  Climbing FlightAware ADS-B
Fri 01:01:31 AM 51.9743 -4.1552 98° East 458 527 36,500  Descending FlightAware UK
Fri 01:01:43 AM 51.9731 -4.1391 98° East 478 550 38,000  Climbing FlightAware ADS-B
Fri 01:02:01 AM 51.9638 -4.0494 98° East 462 532 36,500  Descending FlightAware UK
Fri 01:02:14 AM 51.9622 -4.0311 98° East 478 550 38,000  Climbing FlightAware ADS-B
Fri 01:02:37 AM 51.9512 -3.9223 98° East 462 532 36,500  Descending FlightAware UK
Fri 01:02:45 AM 51.9512 -3.9213 98° East 477 549 38,000  Climbing FlightAware ADS-B
Fri 01:03:01 AM 51.9427 -3.8385 98° East 464 534 36,500  Descending FlightAware UK
Fri 01:03:18 AM 51.9392 -3.8040 98° East 475 547 38,000  Climbing FlightAware ADS-B
Fri 01:03:37 AM 51.9298 -3.7113 98° East 454 522 36,500  Descending FlightAware UK
Fri 01:03:50 AM 51.9277 -3.6920 98° East 474 545 38,000  Climbing FlightAware ADS-B
Fri 01:04:07 AM 51.9190 -3.6063 98° East 460 529 36,500  Descending FlightAware UK
Fri 01:04:24 AM 51.9156 -3.5749 98° East 472 543 38,000  Climbing FlightAware ADS-B
Fri 01:04:43 AM 51.9059 -3.4810 98° East 458 527 36,500  Descending FlightAware UK
Fri 01:04:55 AM 51.9044 -3.4679 98° East 471 542 38,000  Climbing FlightAware ADS-B
Fri 01:05:13 AM 51.8951 -3.3770 98° East 454 522 36,500  Descending FlightAware UK
Fri 01:05:25 AM 51.8934 -3.3635 98° East 471 542 38,000  Climbing FlightAware ADS-B
Fri 01:05:43 AM 51.8841 -3.2726 98° East 450 518 36,500  Descending FlightAware UK
Fri 01:05:56 AM 51.8821 -3.2564 98° East 470 541 38,000  Climbing FlightAware ADS-B
Fri 01:06:13 AM 51.8732 -3.1696 98° East 454 522 36,500  Descending FlightAware UK
Fri 01:06:26 AM 51.8709 -3.1524 98° East 468 539 38,000  Climbing FlightAware ADS-B
Fri 01:06:43 AM 51.8621 -3.0662 98° East 458 527 36,500  Descending FlightAware UK
Fri 01:06:58 AM 51.8592 -3.0440 98° East 467 537 38,000  Climbing FlightAware ADS-B
Fri 01:07:13 AM 51.8508 -2.9626 98° East 442 509 36,500  Descending FlightAware UK
Fri 01:07:29 AM 51.8477 -2.9392 98° East 467 537 38,000  Climbing FlightAware ADS-B
Fri 01:07:49 AM 51.8373 -2.8394 98° East 444 511 36,500  Descending FlightAware UK
Fri 01:08:00 AM 51.8359 -2.8310 98° East 466 536 38,000  Climbing FlightAware ADS-B
Fri 01:08:19 AM 51.8260 -2.7367 98° East 446 513 36,500  Descending FlightAware UK
Fri 01:08:31 AM 51.8244 -2.7269 98° East 467 537 38,000  Climbing FlightAware ADS-B
Fri 01:08:49 AM 51.8147 -2.6332 98° East 446 513 36,500  Descending FlightAware UK
Fri 01:09:01 AM 51.8129 -2.6234 98° East 468 539 38,000  Climbing FlightAware ADS-B
Fri 01:09:20 AM 51.8030 -2.5294 98° East 450 518 36,500  Descending FlightAware UK
Fri 01:09:31 AM 51.8012 -2.5190 98° East 470 541 38,000  Climbing FlightAware ADS-B
Fri 01:09:49 AM 51.7913 -2.4269 98° East 446 513 36,500  Descending FlightAware UK
Fri 01:10:01 AM 51.7894 -2.4142 98° East 471 542 38,000  Climbing FlightAware ADS-B
Fri 01:10:19 AM 51.7795 -2.3234 98° East 450 518 36,500  Descending FlightAware UK
Fri 01:10:32 AM 51.7775 -2.3109 98° East 471 542 38,000  Climbing FlightAware ADS-B
Fri 01:10:49 AM 51.7675 -2.2198 98° East 452 520 36,500  Descending FlightAware UK
Fri 01:11:02 AM 51.7655 -2.2064 98° East 471 542 38,000  Climbing FlightAware ADS-B
Fri 01:11:25 AM 51.7532 -2.0956 98° East 452 520 36,500  Descending FlightAware UK
Fri 01:11:32 AM 51.7535 -2.1022 98° East 472 543 38,000  Climbing FlightAware ADS-B
Fri 01:11:50 AM 51.7433 -2.0113 98° East 452 520 36,500  Descending FlightAware UK
Fri 01:12:02 AM 51.7413 -1.9980 98° East 472 543 38,000  Climbing FlightAware ADS-B
Fri 01:12:20 AM 51.7311 -1.9083 98° East 448 516 36,500  Descending FlightAware UK
Fri 01:12:33 AM 51.7289 -1.8933 98° East 472 543 38,000  Climbing FlightAware ADS-B
Fri 01:12:50 AM 51.7187 -1.8040 98° East 450 518 36,500  Descending FlightAware UK
Fri 01:13:03 AM 51.7164 -1.7877 98° East 473 544 38,000  Climbing FlightAware ADS-B
Fri 01:13:20 AM 51.7063 -1.7002 98° East 450 518 36,500  Descending FlightAware UK
Fri 01:13:35 AM 51.7035 -1.6799 98° East 474 545 38,000  Climbing FlightAware ADS-B
Fri 01:13:50 AM 51.6936 -1.5957 98° East 454 522 36,500  Descending FlightAware UK
Fri 01:14:05 AM 51.6909 -1.5740 98° East 475 547 38,000  Climbing FlightAware ADS-B
Fri 01:14:20 AM 51.6809 -1.4916 98° East 458 527 36,500  Descending FlightAware UK
Fri 01:14:36 AM 51.6781 -1.4688 98° East 476 548 38,000  Climbing FlightAware ADS-B
Fri 01:14:56 AM 51.6657 -1.3666 98° East 458 527 36,500  Descending FlightAware UK
Fri 01:15:07 AM 51.6649 -1.3613 98° East 476 548 38,000  Climbing FlightAware ADS-B
Fri 01:15:26 AM 51.6527 -1.2618 98° East 460 529 36,500  Descending FlightAware UK
Fri 01:15:37 AM 51.6520 -1.2552 98° East 475 547 38,000  Climbing FlightAware ADS-B
Fri 01:15:56 AM 51.6399 -1.1583 98° East 456 525 36,500  Descending FlightAware UK
Fri 01:16:08 AM 51.6390 -1.1501 98° East 475 547 38,000  Climbing FlightAware ADS-B
Fri 01:16:26 AM 51.6266 -1.0538 98° East 456 525 36,500  Descending FlightAware UK
Fri 01:16:38 AM 51.6260 -1.0458 98° East 474 545 38,000  Climbing FlightAware ADS-B
Fri 01:16:56 AM 51.6135 -0.9500 98° East 454 522 36,500  Descending FlightAware UK
Fri 01:17:08 AM 51.6127 -0.9409 98° East 474 545 38,000  Climbing FlightAware ADS-B
Fri 01:17:26 AM 51.6002 -0.8463 98° East 456 525 36,500  Descending FlightAware UK
Fri 01:17:39 AM 51.5995 -0.8353 98° East 475 547 38,000  Climbing FlightAware ADS-B
Fri 01:17:56 AM 51.5868 -0.7420 98° East 454 522 36,500  Descending FlightAware UK
Fri 01:18:09 AM 51.5859 -0.7293 98° East 475 547 38,000  Climbing FlightAware ADS-B
Fri 01:18:26 AM 51.5735 -0.6392 98° East 456 525 36,500  Descending FlightAware UK
Fri 01:18:40 AM 51.5724 -0.6240 98° East 474 545 38,000  Climbing FlightAware ADS-B
Fri 01:18:56 AM 51.5577 -0.5362 98° East 456 525 36,500  Descending FlightAware UK
Fri 01:19:10 AM 51.5540 -0.5219 98° East 472 543 38,000  Climbing FlightAware ADS-B
Fri 01:19:26 AM 51.5377 -0.4367 98° East 456 525 36,500  Descending FlightAware UK
Fri 01:19:41 AM 51.5334 -0.4198 98° East 470 541 38,000  Climbing FlightAware ADS-B
Fri 01:19:56 AM 51.5174 -0.3372 98° East 454 522 36,500  Descending FlightAware UK
Fri 01:20:12 AM 51.5128 -0.3178 98° East 471 542 38,000  Climbing FlightAware ADS-B
Fri 01:20:27 AM 51.4971 -0.2369 98° East 454 522 36,500  Descending FlightAware UK
Fri 01:20:42 AM 51.4931 -0.2184 98° East 470 541 38,000  Climbing FlightAware ADS-B
Fri 01:20:57 AM 51.4772 -0.1373 98° East 452 520 36,500  Descending FlightAware UK
Fri 01:21:13 AM 51.4732 -0.1178 98° East 470 541 38,000  Climbing FlightAware ADS-B
Fri 01:21:33 AM 51.4536 -0.0180 98° East 452 520 36,500  Descending FlightAware UK
Fri 01:21:36 AM 51.4589 -0.0412 98° East 471 542 38,000  Climbing FlightAware ADS-B
Fri 01:21:51 AM 51.4442 0.0430 98° East 452 520 36,500  Descending FlightAware UK
Fri 01:22:07 AM 51.4433 0.0673 98° East 472 543 38,000  Climbing FlightAware ADS-B
Fri 01:22:27 AM 51.4282 0.1670 98° East 452 520 36,500  Descending FlightAware UK
Fri 01:22:38 AM 51.4310 0.1710 98° East 473 544 38,000  Climbing FlightAware ADS-B
Fri 01:22:57 AM 51.4159 0.2703 98° East 454 522 36,500  Descending FlightAware UK
Fri 01:23:08 AM 51.4184 0.2760 98° East 473 544 38,000  Climbing FlightAware ADS-B
Fri 01:23:27 AM 51.4033 0.3735 98° East 452 520 36,500  Descending FlightAware UK
Fri 01:23:39 AM 51.4057 0.3816 98° East 474 545 38,000  Climbing FlightAware ADS-B
Fri 01:23:57 AM 51.3903 0.4773 98° East 454 522 36,500  Descending FlightAware UK
Fri 01:24:12 AM 51.3916 0.4954 98° East 473 544 38,000  Climbing FlightAware ADS-B
Fri 01:24:27 AM 51.3771 0.5802 98° East 458 527 36,500  Descending FlightAware UK
Fri 01:24:43 AM 51.3784 0.5999 98° East 472 543 38,000  Climbing FlightAware ADS-B
Fri 01:25:03 AM 51.3612 0.7041 98° East 452 520 36,500  Descending FlightAware UK
Fri 01:25:13 AM 51.3654 0.7038 98° East 471 542 38,000  Climbing FlightAware ADS-B
Fri 01:25:39 AM 51.3455 0.8270 98° East 450 518 36,500  Descending FlightAware UK
Fri 01:25:44 AM 51.3523 0.8068 98° East 471 542 38,000  Climbing FlightAware ADS-B
Fri 01:26:03 AM 51.3348 0.9088 98° East 450 518 36,500  Descending FlightAware UK
Fri 01:26:14 AM 51.3389 0.9115 98° East 471 542 38,000 3,750 Climbing FlightAware ADS-B
Fri 01:26:27 AM 51.3334 0.9544 102° East 471 542 38,000  Level FlightAware ADS-B
Fri 01:26:34 AM 51.3293 0.9778 106° East 468 539 38,000  Level FlightAware ADS-B
Fri 01:26:46 AM 51.3199 1.0167 111° Southeast 464 534 38,000  Level FlightAware ADS-B
Fri 01:27:16 AM 51.2934 1.1108 114° Southeast 464 534 38,000  Level FlightAware ADS-B
Fri 01:27:37 AM 51.2758 1.1753 114° Southeast 465 535 38,000 -2,500 Level FlightAware ADS-B
Fri 01:27:52 AM 51.2528 1.2566 114° Southeast 450 518 36,500  Descending FlightAware UK
Fri 01:28:08 AM 51.2502 1.2735 114° Southeast 466 536 38,000  Climbing FlightAware ADS-B
Fri 01:28:27 AM 51.2236 1.3710 114° Southeast 448 516 36,500  Descending FlightAware UK
Fri 01:28:52 AM 51.2143 1.4155 114° Southeast 467 537 38,000  Climbing FlightAware ADS-B
Fri 01:29:10 AM 51.1892 1.5054 114° Southeast 448 516 36,500  Descending FlightAware UK
Fri 01:29:24 AM 51.1886 1.5135 114° Southeast 467 537 38,000  Climbing FlightAware ADS-B
Fri 01:29:40 AM 51.1639 1.6002 114° Southeast 446 513 36,500 -2,647 Descending FlightAware UK
Fri 01:29:58 AM 51.1486 1.6570 113° Southeast 448 516 36,500  Level FlightAware UK
Fri 01:30:16 AM 51.1332 1.7140 113° Southeast 450 518 36,500  Level FlightAware UK
Fri 01:30:34 AM 51.1179 1.7710 113° Southeast 448 516 36,500  Level FlightAware UK
Fri 01:30:52 AM 51.1025 1.8287 113° Southeast 450 518 36,500 2,727 Level FlightAware UK
Fri 01:31:07 AM 51.1015 1.8427 113° Southeast 468 539 38,000  Climbing FlightAware ADS-B
Fri 01:31:22 AM 51.0769 1.9238 113° Southeast 452 520 36,500  Descending FlightAware UK
Fri 01:31:38 AM 51.0760 1.9382 113° Southeast 468 539 38,000  Climbing FlightAware ADS-B
Fri 01:31:58 AM 51.0457 2.0382 113° Southeast 452 520 36,500  Descending FlightAware UK
Fri 01:32:09 AM 51.0495 2.0366 113° Southeast 468 539 38,000  Climbing FlightAware ADS-B
Fri 01:32:28 AM 51.0199 2.1328 113° Southeast 456 525 36,500  Descending FlightAware UK
Fri 01:32:47 AM 51.0167 2.1576 113° Southeast 468 539 38,000  Climbing FlightAware ADS-B
Fri 01:33:04 AM 50.9887 2.2470 113° Southeast 454 522 36,500  Descending FlightAware UK
Fri 01:33:24 AM 50.9855 2.2723 113° Southeast 469 540 38,000  Climbing FlightAware ADS-B
Fri 01:33:40 AM 50.9574 2.3602 113° Southeast 454 522 36,500  Descending FlightAware UK
Fri 01:34:03 AM 50.9513 2.3972 113° Southeast 468 539 38,000  Climbing FlightAware ADS-B
Fri 01:34:22 AM 50.9207 2.4921 113° Southeast 452 520 36,500 -2,432 Descending FlightAware UK
Fri 01:34:40 AM 50.9049 2.5492 114° Southeast 458 527 36,500 2,500 Level FlightAware UK
Fri 01:34:58 AM 50.9070 2.5580 114° Southeast 467 537 38,000  Climbing FlightAware ADS-B
Fri 01:35:16 AM 50.8736 2.6603 114° Southeast 456 525 36,500 -2,500 Descending FlightAware UK
Fri 01:35:34 AM 50.8576 2.7178 114° Southeast 452 520 36,500 4,091 Level FlightAware UK
Fri 01:35:38 AM 50.8730 2.6810 114° Southeast 466 536 38,000  Climbing FlightAware ADS-B
Fri 01:35:58 AM 50.8369 2.7919 114° Southeast 456 525 36,500  Descending FlightAware UK
Fri 01:36:18 AM 50.8370 2.8090 114° Southeast 466 536 38,000  Climbing FlightAware ADS-B
Fri 01:36:35 AM 50.8048 2.9048 114° Southeast 456 525 36,500 -2,571 Descending FlightAware UK
Fri 01:36:53 AM 50.7890 2.9606 114° Southeast 456 525 36,500 3,214 Level FlightAware UK
Fri 01:37:03 AM 50.7980 2.9490 114° Southeast 465 535 38,000  Climbing FlightAware ADS-B
Fri 01:37:23 AM 50.7625 3.0535 114° Southeast 452 520 36,500 -2,368 Descending FlightAware UK
Fri 01:37:41 AM 50.7467 3.1092 114° Southeast 454 522 36,500 4,500 Level FlightAware UK
Fri 01:37:43 AM 50.7630 3.0720 114° Southeast 464 534 38,000  Climbing FlightAware ADS-B
Fri 01:37:59 AM 50.7307 3.1646 114° Southeast 452 520 36,500  Descending FlightAware UK
Fri 01:38:28 AM 50.7250 3.2060 114° Southeast 463 533 38,000  Climbing FlightAware ADS-B
Fri 01:38:47 AM 50.6885 3.3132 114° Southeast 450 518 36,500 -2,432 Descending FlightAware UK
Fri 01:39:05 AM 50.6726 3.3677 115° Southeast 452 520 36,500 4,286 Level FlightAware UK
Fri 01:39:08 AM 50.6880 3.3360 115° Southeast 464 534 38,000  Climbing FlightAware ADS-B
Fri 01:39:23 AM 50.6563 3.4234 115° Southeast 450 518 36,500 -2,727 Descending FlightAware UK
Fri 01:39:41 AM 50.6404 3.4779 115° Southeast 448 516 36,500 4,500 Level FlightAware UK
Fri 01:39:43 AM 50.6590 3.4370 115° Southeast 464 534 38,000  Climbing FlightAware ADS-B
Fri 01:40:05 AM 50.6188 3.5514 115° Southeast 448 516 36,500 -1,957 Descending FlightAware UK
Fri 01:40:29 AM 50.5973 3.6258 115° Southeast 450 518 36,500 3,214 Level FlightAware UK
Fri 01:40:33 AM 50.6160 3.5870 115° Southeast 465 535 38,000  Climbing FlightAware ADS-B
Fri 01:41:05 AM 50.5648 3.7362 115° Southeast 450 518 36,500  Descending FlightAware UK
Fri 01:41:13 AM 50.5780 3.7170 115° Southeast 465 535 38,000  Climbing FlightAware ADS-B
Fri 01:41:29 AM 50.5433 3.8100 115° Southeast 450 518 36,500  Descending FlightAware UK
Fri 01:41:53 AM 50.5420 3.8410 115° Southeast 465 535 38,000  Climbing FlightAware ADS-B
Fri 01:42:17 AM 50.4999 3.9571 115° Southeast 450 518 36,500  Descending FlightAware UK
Fri 01:42:33 AM 50.5070 3.9610 115° Southeast 465 535 38,000  Climbing FlightAware ADS-B
Fri 01:43:11 AM 50.4512 4.1227 115° Southeast 450 518 36,500  Descending FlightAware UK
Fri 01:43:18 AM 50.4650 4.1040 115° Southeast 466 536 38,000  Climbing FlightAware ADS-B
Fri 01:43:35 AM 50.4290 4.1956 115° Southeast 452 520 36,500 -2,571 Descending FlightAware UK
Fri 01:43:53 AM 50.4128 4.2520 114° Southeast 450 518 36,500 3,913 Level FlightAware UK
Fri 01:43:58 AM 50.4290 4.2260 114° Southeast 466 536 38,000  Climbing FlightAware ADS-B
Fri 01:44:17 AM 50.3904 4.3244 114° Southeast 450 518 36,500 -2,432 Descending FlightAware UK
Fri 01:44:35 AM 50.3733 4.3779 117° Southeast 1 1 36,500 3,462 Level FlightAware UK
Fri 01:44:43 AM 50.3890 4.3570 117° Southeast 466 536 38,000  Climbing FlightAware ADS-B
Fri 01:45:23 AM 50.3280 4.5240 117° Southeast 1 1 36,500  Descending FlightAware UK
Fri 01:45:23 AM 50.3500 4.4750 117° Southeast 460 529 38,000  Climbing FlightAware ADS-B
Fri 01:45:47 AM 50.3018 4.5930 117° Southeast 1 1 36,500  Descending FlightAware UK
Fri 01:46:03 AM 50.3110 4.5800 117° Southeast 461 531 38,000 1,364 Climbing FlightAware ADS-B
Fri 01:46:53 AM 50.2570 4.7250 120° Southeast 462 532 38,000 -1,324 Level FlightAware ADS-B
Fri 01:47:11 AM 50.2120 4.8346 120° Southeast 1 1 36,500  Descending FlightAware UK
Fri 01:47:33 AM 50.2140 4.8410 120° Southeast 461 531 38,000 1,452 Climbing FlightAware ADS-B
Fri 01:48:13 AM 50.1690 4.9620 120° Southeast 463 533 38,000  Level FlightAware ADS-B
Fri 01:48:58 AM 50.1180 5.1020 120° Southeast 462 532 38,000 -71 Level FlightAware ADS-B
Fri 01:49:38 AM 50.0760 5.2150 120° Southeast 462 532 37,900 -825 Descending FlightAware ADS-B
Fri 01:50:18 AM 50.0370 5.3240 119° Southeast 459 528 36,900 -1,271 Descending FlightAware ADS-B
Fri 01:51:03 AM 49.9920 5.4550 118° Southeast 446 513 36,100 -1,482 Descending FlightAware ADS-B
Fri 01:51:43 AM 49.9580 5.5730 114° Southeast 451 519 34,800 -1,835 Descending FlightAware ADS-B
Fri 01:52:28 AM 49.9210 5.6980 115° Southeast 444 511 33,500 -1,271 Descending FlightAware ADS-B
Fri 01:53:08 AM 49.8850 5.8180 115° Southeast 433 498 33,000 -353 Descending FlightAware ADS-B
Fri 01:53:53 AM 49.8460 5.9460 115° Southeast 438 504 33,000  Level FlightAware ADS-B
Fri 01:54:33 AM 49.8110 6.0600 115° Southeast 443 510 33,000  Level FlightAware ADS-B
Fri 01:55:13 AM 49.7750 6.1780 115° Southeast 450 518 33,000  Level FlightAware ADS-B
Fri 01:55:58 AM 49.7350 6.3110 115° Southeast 447 514 33,000  Level FlightAware ADS-B
Fri 01:56:38 AM 49.7000 6.4230 116° Southeast 445 512 33,000 -825 Level FlightAware ADS-B
Fri 01:57:18 AM 49.6640 6.5410 115° Southeast 458 527 31,900 -2,047 Descending FlightAware ADS-B
Fri 01:58:03 AM 49.6210 6.6770 116° Southeast 460 529 30,100 -2,400 Descending FlightAware ADS-B
Fri 01:58:43 AM 49.5840 6.7960 116° Southeast 455 524 28,500 -2,471 Descending FlightAware ADS-B
Fri 01:59:28 AM 49.5430 6.9280 116° Southeast 451 519 26,600 -2,541 Descending FlightAware ADS-B
Fri 02:00:08 AM 49.5070 7.0400 116° Southeast 446 513 24,900 -2,753 Descending FlightAware ADS-B
Fri 02:00:53 AM 49.4660 7.1690 116° Southeast 445 512 22,700 -2,775 Descending FlightAware ADS-B
Fri 02:01:28 AM 49.4360 7.2630 116° Southeast 442 509 21,200 -2,625 Descending FlightAware ADS-B
Fri 02:02:13 AM 49.3960 7.3870 116° Southeast 430 495 19,200 -1,055 Descending FlightAware ADS-B
Fri 02:04:00 AM 49.2816 7.6931 120° Southeast  Level Estimated
Fri 02:05:00 AM 49.2171 7.8641 120° Southeast  Level Estimated
Fri 02:06:00 AM 49.1524 8.0346 120° Southeast  Level Estimated
Fri 02:07:00 AM 49.0874 8.2047 120° Southeast  Level Estimated
Fri 02:08:00 AM 49.0222 8.3744 120° Southeast  Level Estimated
Fri 02:09:00 AM 48.9567 8.5436 120° Southeast  Level Estimated
Fri 02:10:00 AM 48.8909 8.7124 121° Southeast  Level Estimated
Fri 02:11:00 AM 48.8250 8.8807 121° Southeast  Level Estimated
Fri 02:11:08 AM 49.0700 8.7010 121° Southeast 351 404 11,000  Level FlightAware ADS-B
Fri 02:12:53 AM 48.9960 8.9280 122° Southeast 314 361 10,200 -444 Descending FlightAware ADS-B
Fri 02:13:00 AM 48.8915 8.9470 122° Southeast  Level Estimated
Fri 02:13:23 AM 48.9750 8.9870 118° Southeast 297 342 10,000  Level FlightAware ADS-B
Fri 02:13:53 AM 48.9560 9.0450 116° Southeast 292 336 9,500 -1,200 Descending FlightAware ADS-B
Fri 02:14:23 AM 48.9370 9.0960 120° Southeast 287 330 8,800 -1,527 Descending FlightAware ADS-B
Fri 02:14:48 AM 48.9190 9.1450 119° Southeast 291 335 8,100 -1,650 Descending FlightAware ADS-B
Fri 02:15:03 AM 48.9100 9.1710 118° Southeast 288 331 7,700 -1,600 Descending FlightAware ADS-B
Fri 02:15:33 AM 48.8900 9.2260 119° Southeast 288 331 6,900 -1,500 Descending FlightAware ADS-B
Fri 02:16:03 AM 48.8700 9.2800 119° Southeast 282 325 6,200 -1,200 Descending FlightAware ADS-B
Fri 02:16:28 AM 48.8550 9.3210 119° Southeast 274 315 5,800 -1,200 Descending FlightAware ADS-B
Fri 02:16:58 AM 48.8350 9.3740 120° Southeast 267 307 5,100 -1,309 Descending FlightAware ADS-B
Fri 02:17:23 AM 48.8200 9.4110 122° Southeast 267 307 4,600 -1,350 Descending FlightAware ADS-B
Fri 02:17:38 AM 48.8110 9.4360 119° Southeast 267 307 4,200 -1,067 Descending FlightAware ADS-B
Fri 02:18:08 AM 48.7900 9.4800 126° Southeast 254 292 3,800 -533 Descending FlightAware ADS-B
Fri 02:18:23 AM 48.7740 9.4900 158° South 244 281 3,800  Level FlightAware ADS-B
Fri 02:18:48 AM 48.7520 9.4810 195° South 219 252 3,800  Level FlightAware ADS-B
Fri 02:19:03 AM 48.7450 9.4550 248° West 209 241 3,800 -300 Level FlightAware ADS-B
Fri 02:19:48 AM 48.7400 9.3970 263° West 193 222 3,500 -686 Descending FlightAware ADS-B
Fri 02:20:13 AM 48.7330 9.3640 252° West 182 209 3,000 -1,050 Descending FlightAware ADS-B
Fri 02:20:28 AM 48.7300 9.3470 255° West 170 196 2,800 -900 Descending FlightAware ADS-B
Fri 02:20:53 AM 48.7250 9.3190 255° West 149 171 2,400 -873 Descending FlightAware ADS-B
Fri 02:21:23 AM 48.7190 9.2910 252° West 126 145 2,000 -700 Descending FlightAware ADS-B
Fri 02:21:53 AM 48.7150 9.2670 256° West 123 142 1,700 -667 Descending FlightAware ADS-B
Fri 02:22:08 AM 48.7120 9.2550 249° West 122 140 1,500 -600 Descending FlightAware ADS-B
Fri 02:22:23 AM 48.7100 9.2440 255° West 120 138 1,400 -600 Descending FlightAware ADS-B
Fri 02:22:38 AM 48.7070 9.2300 252° West 123 142 1,200 -800 Descending FlightAware ADS-B
Fri 02:26:00 AM 48.6833 9.2167 127° Southeast  Level FlightAware Approximate
Fri 02:27:00 AM 48.6899 9.2220 127° Southeast  Level Estimated
Fri 02:28:00 AM 48.6899 9.2220 127° Southeast  Level Estimated
Fri 02:29:00 AM 48.6899 9.2220 127° Southeast  Level Estimated

Login

Don't have an account? Register now (free) for customized features, flight alerts, and more!